createdAt,value
2022-11-20T00:02:16.737Z,62.45
2022-11-20T00:05:18.619Z,62.56
2022-11-20T00:08:20.762Z,62.42
2022-11-20T00:11:23.884Z,62.29
2022-11-20T00:14:25.529Z,62.41
2022-11-20T00:17:27.265Z,62.38
2022-11-20T00:20:28.857Z,62.30
2022-11-20T00:23:30.983Z,62.20
2022-11-20T00:26:32.647Z,62.21
2022-11-20T00:29:34.330Z,62.37
2022-11-20T00:32:35.985Z,62.43
2022-11-20T00:35:37.583Z,62.50
2022-11-20T00:38:39.860Z,62.54
2022-11-20T00:41:41.536Z,62.64
2022-11-20T00:44:43.133Z,62.65
2022-11-20T00:47:44.719Z,62.72
2022-11-20T00:50:46.437Z,62.70
2022-11-20T00:53:48.962Z,62.75
2022-11-20T00:56:52.831Z,62.89
2022-11-20T00:59:54.712Z,63.04
2022-11-20T01:02:56.504Z,63.04
2022-11-20T01:06:03.674Z,62.96
2022-11-20T01:09:12.913Z,62.99
2022-11-20T01:12:14.590Z,63.01
2022-11-20T01:15:16.320Z,63.02
2022-11-20T01:18:17.949Z,63.11
2022-11-20T01:21:25.342Z,63.21
2022-11-20T01:24:27.044Z,63.35
2022-11-20T01:27:28.626Z,63.40
2022-11-20T01:30:30.281Z,63.46
2022-11-20T01:33:31.875Z,63.44
2022-11-20T01:36:35.940Z,63.48
2022-11-20T01:39:37.548Z,63.38
2022-11-20T01:43:03.057Z,63.31
2022-11-20T01:46:19.083Z,63.27
2022-11-20T01:49:27.296Z,63.34
2022-11-20T01:52:52.126Z,63.39
2022-11-20T01:55:57.354Z,63.44
2022-11-20T01:59:02.207Z,63.47
2022-11-20T02:02:03.895Z,63.54
2022-11-20T02:05:31.664Z,63.59
2022-11-20T02:08:34.300Z,63.69
2022-11-20T02:11:36.092Z,63.72
2022-11-20T02:14:37.803Z,63.66
2022-11-20T02:17:39.742Z,63.67
2022-11-20T02:20:44.490Z,63.62
2022-11-20T02:24:06.041Z,63.61
2022-11-20T02:27:11.163Z,63.61
2022-11-20T02:30:13.178Z,63.69
2022-11-20T02:33:14.874Z,63.74
2022-11-20T02:36:16.663Z,63.83
2022-11-20T02:39:20.258Z,63.90
2022-11-20T02:42:22.105Z,63.90
2022-11-20T02:45:25.123Z,63.94
2022-11-20T02:48:30.150Z,63.96
2022-11-20T02:51:34.333Z,63.98
2022-11-20T02:54:35.985Z,63.97
2022-11-20T02:57:37.633Z,64.22
2022-11-20T03:00:39.231Z,64.36
2022-11-20T03:03:40.887Z,64.51
2022-11-20T03:06:42.508Z,64.62
2022-11-20T03:09:44.206Z,64.74
2022-11-20T03:12:45.903Z,64.95
2022-11-20T03:15:47.580Z,65.13
2022-11-20T03:18:49.960Z,65.24
2022-11-20T03:21:51.581Z,65.46
2022-11-20T03:24:53.215Z,65.60
2022-11-20T03:27:54.961Z,65.68
2022-11-20T03:30:56.565Z,65.73
2022-11-20T03:33:59.230Z,65.90
2022-11-20T03:37:00.833Z,66.06
2022-11-20T03:40:02.822Z,66.24
2022-11-20T03:43:04.482Z,66.28
2022-11-20T03:46:07.026Z,66.41
2022-11-20T03:49:08.694Z,66.35
2022-11-20T03:52:10.294Z,66.07
2022-11-20T03:55:11.952Z,65.88
2022-11-20T03:58:14.093Z,65.65
2022-11-20T04:01:17.771Z,65.48
2022-11-20T04:04:19.480Z,65.49
2022-11-20T04:07:21.421Z,65.33
2022-11-20T04:10:23.542Z,65.22
2022-11-20T04:13:25.121Z,65.23
2022-11-20T04:16:30.182Z,65.35
2022-11-20T04:19:31.794Z,65.26
2022-11-20T04:22:33.365Z,65.22
2022-11-20T04:25:35.112Z,65.12
2022-11-20T04:28:37.812Z,64.99
2022-11-20T04:31:39.616Z,64.92
2022-11-20T04:34:41.241Z,64.84
2022-11-20T04:37:42.877Z,64.79
2022-11-20T04:40:44.560Z,64.79
2022-11-20T04:43:48.951Z,64.80
2022-11-20T04:46:50.574Z,64.82
2022-11-20T04:49:52.495Z,64.83
2022-11-20T04:52:54.129Z,64.80
2022-11-20T04:56:03.520Z,64.83
2022-11-20T04:59:05.157Z,64.85
2022-11-20T05:02:07.127Z,64.66
2022-11-20T05:05:08.828Z,64.51
2022-11-20T05:08:10.497Z,64.51
2022-11-20T05:11:14.549Z,64.51
2022-11-20T05:14:16.350Z,64.50
2022-11-20T05:17:18.077Z,64.55
2022-11-20T05:20:19.949Z,64.57
2022-11-20T05:23:21.617Z,64.67
2022-11-20T05:26:24.031Z,64.70
2022-11-20T05:29:25.697Z,64.81
2022-11-20T05:32:27.365Z,64.75
2022-11-20T05:35:29.060Z,64.67
2022-11-20T05:38:30.787Z,64.56
2022-11-20T05:41:33.738Z,64.45
2022-11-20T05:44:35.389Z,64.50
2022-11-20T05:47:37.089Z,64.54
2022-11-20T05:50:38.750Z,64.54
2022-11-20T05:53:46.733Z,64.54
2022-11-20T05:56:49.910Z,64.59
2022-11-20T05:59:51.629Z,64.52
2022-11-20T06:02:53.593Z,64.46
2022-11-20T06:05:55.235Z,64.18
2022-11-20T06:08:59.172Z,64.20
2022-11-20T06:12:00.841Z,64.04
2022-11-20T06:15:03.294Z,64.03
2022-11-20T06:18:05.036Z,63.93
2022-11-20T06:21:09.236Z,63.93
2022-11-20T06:24:11.392Z,63.87
2022-11-20T06:27:13.090Z,63.79
2022-11-20T06:30:15.046Z,63.78
2022-11-20T06:33:16.729Z,63.86
2022-11-20T06:36:21.319Z,63.93
2022-11-20T06:39:23.107Z,63.99
2022-11-20T06:42:24.864Z,64.00
2022-11-20T06:45:26.490Z,63.99
2022-11-20T06:48:29.193Z,64.06
2022-11-20T06:51:30.832Z,64.15
2022-11-20T06:54:32.464Z,64.32
2022-11-20T06:57:34.451Z,64.48
2022-11-20T07:00:36.169Z,64.63
2022-11-20T07:03:38.235Z,64.70
2022-11-20T07:06:39.767Z,64.71
2022-11-20T07:09:41.440Z,64.81
2022-11-20T07:12:43.091Z,64.99
2022-11-20T07:15:44.826Z,65.09
2022-11-20T07:18:50.421Z,65.30
2022-11-20T07:21:52.545Z,65.73
2022-11-20T07:24:54.237Z,66.01
2022-11-20T07:27:59.885Z,66.25
2022-11-20T07:31:02.409Z,66.37
2022-11-20T07:34:04.041Z,66.45
2022-11-20T07:37:10.175Z,66.57
2022-11-20T07:40:13.373Z,66.81
2022-11-20T07:43:15.017Z,66.99
2022-11-20T07:46:17.572Z,67.23
2022-11-20T07:49:19.434Z,67.31
2022-11-20T07:52:21.295Z,67.55
2022-11-20T07:55:22.952Z,67.64
2022-11-20T07:58:24.591Z,67.87
2022-11-20T08:01:26.302Z,68.15
2022-11-20T08:04:27.936Z,68.33
2022-11-20T08:07:29.767Z,68.66
2022-11-20T08:10:31.392Z,68.89
2022-11-20T08:13:51.803Z,69.08
2022-11-20T08:16:53.919Z,69.21
2022-11-20T08:19:55.545Z,69.26
2022-11-20T08:23:06.275Z,68.93
2022-11-20T08:26:07.975Z,68.97
2022-11-20T08:29:09.675Z,69.13
2022-11-20T08:32:11.331Z,69.21
2022-11-20T08:35:13.869Z,69.01
2022-11-20T08:38:15.653Z,69.14
2022-11-20T08:41:31.990Z,69.36
2022-11-20T08:44:33.937Z,69.71
2022-11-20T08:47:35.607Z,69.78
2022-11-20T08:50:37.271Z,69.95
2022-11-20T08:53:39.746Z,70.15
2022-11-20T08:56:41.509Z,69.81
2022-11-20T09:00:05.124Z,69.76
2022-11-20T09:03:05.055Z,69.52
2022-11-20T09:06:07.778Z,69.50
2022-11-20T09:09:09.505Z,69.49
2022-11-20T09:12:11.709Z,69.34
2022-11-20T09:15:13.482Z,69.20
2022-11-20T09:18:15.146Z,69.05
2022-11-20T09:21:17.125Z,69.01
2022-11-20T09:24:19.480Z,68.73
2022-11-20T09:27:21.950Z,68.49
2022-11-20T09:30:23.648Z,68.25
2022-11-20T09:33:25.471Z,68.01
2022-11-20T09:36:27.275Z,67.90
2022-11-20T09:39:29.135Z,67.91
2022-11-20T09:42:49.535Z,67.69
2022-11-20T09:46:03.201Z,67.54
2022-11-20T09:49:30.616Z,67.32
2022-11-20T09:53:19.968Z,67.27
2022-11-20T09:56:22.913Z,67.25
2022-11-20T09:59:41.838Z,67.21
2022-11-20T10:02:54.017Z,67.35
2022-11-20T10:05:58.356Z,67.30
2022-11-20T10:09:12.088Z,67.22
2022-11-20T10:12:19.523Z,67.32
2022-11-20T10:15:25.795Z,67.32
2022-11-20T10:18:42.577Z,67.37
2022-11-20T10:22:20.971Z,67.42
2022-11-20T10:25:30.509Z,67.59
2022-11-20T10:28:41.706Z,67.58
2022-11-20T10:31:51.517Z,67.63
2022-11-20T10:35:16.774Z,67.86
2022-11-20T10:38:43.494Z,67.95
2022-11-20T10:41:51.012Z,67.84
2022-11-20T10:45:06.020Z,67.77
2022-11-20T10:48:17.692Z,67.56
2022-11-20T10:51:57.642Z,67.61
2022-11-20T10:55:39.480Z,67.44
2022-11-20T10:58:54.917Z,67.41
2022-11-20T11:01:56.730Z,67.34
2022-11-20T11:05:07.253Z,67.51
2022-11-20T11:08:21.685Z,67.65
2022-11-20T11:11:28.076Z,67.90
2022-11-20T11:14:30.502Z,68.00
2022-11-20T11:17:34.335Z,68.05
2022-11-20T11:20:38.726Z,68.09
2022-11-20T11:23:42.928Z,67.96
2022-11-20T11:26:54.168Z,68.07
2022-11-20T11:30:13.443Z,68.15
2022-11-20T11:33:27.276Z,68.00
2022-11-20T11:36:28.975Z,67.84
2022-11-20T11:39:32.909Z,67.63
2022-11-20T11:42:34.561Z,67.62
2022-11-20T11:45:36.605Z,67.30
2022-11-20T11:48:38.341Z,67.09
2022-11-20T11:52:16.614Z,66.71
2022-11-20T11:55:31.030Z,66.56
2022-11-20T11:58:52.109Z,66.11
2022-11-20T12:01:59.965Z,65.84
2022-11-20T12:05:18.045Z,65.63
2022-11-20T12:08:38.908Z,65.35
2022-11-20T12:12:09.127Z,65.22
2022-11-20T12:15:13.360Z,64.77
2022-11-20T12:18:18.608Z,64.05
2022-11-20T12:21:23.218Z,63.82
2022-11-20T12:25:03.203Z,63.94
2022-11-20T12:28:16.634Z,64.09
2022-11-20T12:31:40.766Z,64.34
2022-11-20T12:35:19.315Z,64.61
2022-11-20T12:38:53.554Z,64.74
2022-11-20T12:42:19.503Z,65.02
2022-11-20T12:45:24.081Z,65.23
2022-11-20T12:48:37.240Z,65.51
2022-11-20T12:51:58.746Z,65.71
2022-11-20T12:55:27.120Z,66.12
2022-11-20T12:58:46.955Z,66.21
2022-11-20T13:01:54.305Z,66.47
2022-11-20T13:05:17.115Z,66.73
2022-11-20T13:08:24.355Z,66.93
2022-11-20T13:11:38.271Z,67.13
2022-11-20T13:14:42.851Z,67.34
2022-11-20T13:18:02.358Z,67.63
2022-11-20T13:21:14.512Z,67.78
2022-11-20T13:24:19.226Z,67.97
2022-11-20T13:27:23.519Z,68.13
2022-11-20T13:30:27.155Z,68.38
2022-11-20T13:33:37.483Z,68.55
2022-11-20T13:36:51.264Z,68.68
2022-11-20T13:39:52.968Z,68.82
2022-11-20T13:42:54.531Z,69.01
2022-11-20T13:46:01.484Z,69.09
2022-11-20T13:49:09.632Z,69.19
2022-11-20T13:52:32.493Z,69.28
2022-11-20T13:56:00.973Z,69.40
2022-11-20T13:59:47.906Z,69.54
2022-11-20T14:03:08.133Z,69.63
2022-11-20T14:06:25.314Z,69.79
2022-11-20T14:09:32.808Z,69.99
2022-11-20T14:12:34.620Z,70.17
2022-11-20T14:15:41.837Z,70.33
2022-11-20T14:18:46.334Z,70.50
2022-11-20T14:22:10.463Z,70.61
2022-11-20T14:25:12.091Z,70.74
2022-11-20T14:28:26.324Z,70.85
2022-11-20T14:31:28.573Z,71.20
2022-11-20T14:34:31.704Z,72.23
2022-11-20T14:37:38.835Z,72.90
2022-11-20T14:40:42.562Z,73.14
2022-11-20T14:43:48.094Z,73.17
2022-11-20T14:46:51.696Z,72.26
2022-11-20T14:49:55.241Z,71.61
2022-11-20T14:52:59.378Z,71.37
2022-11-20T14:56:02.797Z,71.31
2022-11-20T14:59:04.804Z,71.38
2022-11-20T15:02:10.842Z,71.49
2022-11-20T15:05:13.697Z,71.57
2022-11-20T15:08:16.946Z,71.72
2022-11-20T15:11:23.622Z,71.89
2022-11-20T15:14:27.720Z,71.99
2022-11-20T15:17:31.730Z,72.11
2022-11-20T15:20:33.914Z,72.21
2022-11-20T15:23:35.490Z,72.32
2022-11-20T15:26:40.418Z,72.11
2022-11-20T15:29:42.554Z,72.28
2022-11-20T15:32:45.338Z,72.42
2022-11-20T15:35:47.115Z,72.52
2022-11-20T15:38:49.027Z,72.63
2022-11-20T15:41:50.661Z,72.70
2022-11-20T15:44:52.387Z,72.75
2022-11-20T15:47:54.080Z,72.83
2022-11-20T15:51:04.459Z,72.90
2022-11-20T15:54:12.515Z,72.92
2022-11-20T15:57:14.439Z,73.01
2022-11-20T16:00:22.137Z,73.04
2022-11-20T16:03:57.259Z,73.14
2022-11-20T16:06:58.999Z,73.24
2022-11-20T16:10:00.787Z,73.35
2022-11-20T16:13:21.728Z,73.44
2022-11-20T16:16:28.976Z,73.48
2022-11-20T16:19:30.684Z,73.58
2022-11-20T16:22:32.305Z,73.71
2022-11-20T16:25:34.181Z,73.75
2022-11-20T16:28:35.871Z,73.79
2022-11-20T16:31:38.260Z,73.88
2022-11-20T16:34:40.517Z,73.98
2022-11-20T16:37:45.400Z,74.08
2022-11-20T16:40:47.036Z,74.13
2022-11-20T16:43:51.419Z,74.10
2022-11-20T16:46:53.038Z,74.17
2022-11-20T16:49:54.648Z,74.22
2022-11-20T16:52:56.443Z,74.25
2022-11-20T16:56:08.667Z,74.29
2022-11-20T16:59:10.271Z,74.32
2022-11-20T17:02:12.019Z,74.33
2022-11-20T17:05:13.701Z,74.34
2022-11-20T17:08:15.369Z,74.35
2022-11-20T17:11:21.939Z,74.37
2022-11-20T17:14:23.916Z,74.41
2022-11-20T17:17:25.789Z,74.45
2022-11-20T17:20:27.528Z,74.46
2022-11-20T17:23:30.448Z,74.48
2022-11-20T17:26:33.004Z,74.48
2022-11-20T17:29:39.216Z,74.49
2022-11-20T17:32:47.570Z,74.46
2022-11-20T17:35:56.041Z,74.49
2022-11-20T17:38:59.139Z,74.47
2022-11-20T17:42:19.514Z,74.53
2022-11-20T17:45:21.249Z,74.59
2022-11-20T17:48:26.962Z,74.63
2022-11-20T17:51:31.691Z,74.66
2022-11-20T17:54:33.405Z,74.71
2022-11-20T17:57:55.273Z,74.76
2022-11-20T18:01:04.755Z,74.79
2022-11-20T18:04:07.033Z,74.80
2022-11-20T18:07:08.619Z,74.79
2022-11-20T18:10:10.420Z,74.65
2022-11-20T18:13:12.070Z,74.69
2022-11-20T18:16:13.842Z,74.74
2022-11-20T18:19:18.476Z,74.77
2022-11-20T18:22:20.227Z,74.83
2022-11-20T18:25:21.936Z,74.91
2022-11-20T18:28:23.703Z,74.95
2022-11-20T18:31:25.354Z,75.00
2022-11-20T18:34:27.589Z,75.14
2022-11-20T18:37:30.865Z,75.26
2022-11-20T18:40:35.072Z,75.18
2022-11-20T18:43:55.360Z,75.31
2022-11-20T18:46:57.149Z,75.44
2022-11-20T18:50:00.546Z,75.54
2022-11-20T18:53:02.485Z,75.61
2022-11-20T18:56:05.390Z,75.69
2022-11-20T18:59:09.282Z,75.81
2022-11-20T19:02:13.072Z,75.91
2022-11-20T19:05:15.032Z,75.97
2022-11-20T19:08:16.653Z,76.06
2022-11-20T19:11:18.892Z,76.12
2022-11-20T19:14:20.572Z,76.17
2022-11-20T19:17:23.548Z,76.05
2022-11-20T19:20:26.786Z,76.05
2022-11-20T19:23:29.091Z,76.10
2022-11-20T19:26:31.315Z,76.13
2022-11-20T19:29:33.072Z,76.18
2022-11-20T19:32:35.529Z,76.23
2022-11-20T19:35:37.187Z,76.26
2022-11-20T19:38:43.715Z,76.30
2022-11-20T19:41:50.482Z,76.33
2022-11-20T19:44:52.361Z,76.35
2022-11-20T19:48:07.160Z,76.43
2022-11-20T19:51:16.489Z,76.53
2022-11-20T19:54:18.211Z,76.59
2022-11-20T19:57:19.874Z,76.69
2022-11-20T20:00:27.948Z,76.70
2022-11-20T20:03:31.462Z,76.77
2022-11-20T20:06:35.312Z,76.83
2022-11-20T20:09:37.002Z,76.86
2022-11-20T20:12:38.796Z,76.92
2022-11-20T20:15:40.944Z,76.97
2022-11-20T20:18:43.005Z,77.01
2022-11-20T20:21:44.713Z,76.93
2022-11-20T20:24:46.460Z,76.92
2022-11-20T20:27:48.184Z,76.94
2022-11-20T20:30:49.842Z,76.95
2022-11-20T20:33:52.274Z,76.96
2022-11-20T20:36:53.925Z,76.96
2022-11-20T20:39:55.624Z,76.98
2022-11-20T20:42:57.252Z,77.01
2022-11-20T20:45:58.899Z,77.04
2022-11-20T20:49:00.835Z,77.06
2022-11-20T20:52:07.650Z,77.06
2022-11-20T20:55:10.436Z,77.06
2022-11-20T20:58:12.349Z,77.09
2022-11-20T21:01:16.272Z,77.14
2022-11-20T21:04:17.982Z,77.17
2022-11-20T21:07:20.046Z,77.21
2022-11-20T21:10:23.833Z,77.26
2022-11-20T21:13:25.734Z,77.23
2022-11-20T21:16:40.121Z,77.23
2022-11-20T21:19:42.050Z,77.28
2022-11-20T21:22:43.827Z,77.35
2022-11-20T21:25:45.761Z,77.42
2022-11-20T21:28:49.094Z,77.52
2022-11-20T21:31:52.176Z,77.58
2022-11-20T21:34:53.789Z,77.64
2022-11-20T21:37:58.685Z,77.69
2022-11-20T21:41:01.107Z,77.76
2022-11-20T21:44:32.325Z,77.83
2022-11-20T21:47:25.185Z,77.88
2022-11-20T21:50:26.891Z,77.92
2022-11-20T21:53:28.976Z,77.92
2022-11-20T21:56:30.622Z,77.94
2022-11-20T21:59:32.505Z,77.96
2022-11-20T22:02:39.738Z,77.96
2022-11-20T22:05:42.341Z,77.99
2022-11-20T22:08:44.376Z,78.02
2022-11-20T22:11:46.962Z,78.03
2022-11-20T22:14:48.568Z,78.04
2022-11-20T22:18:08.595Z,78.06
2022-11-20T22:21:11.635Z,78.08
2022-11-20T22:24:16.393Z,78.10
2022-11-20T22:27:18.131Z,78.16
2022-11-20T22:30:19.835Z,78.23
2022-11-20T22:33:21.452Z,78.28
2022-11-20T22:36:27.761Z,78.32
2022-11-20T22:39:29.351Z,78.36
2022-11-20T22:42:30.996Z,78.42
2022-11-20T22:45:32.653Z,78.51
2022-11-20T22:48:36.322Z,78.59
2022-11-20T22:51:40.275Z,78.70
2022-11-20T22:54:41.961Z,78.76
2022-11-20T22:57:43.615Z,78.80
2022-11-20T23:00:45.237Z,78.86
2022-11-20T23:03:48.972Z,78.90
2022-11-20T23:06:50.650Z,78.98
2022-11-20T23:09:52.214Z,79.04
2022-11-20T23:12:54.052Z,79.08
2022-11-20T23:16:11.021Z,79.12
2022-11-20T23:19:14.083Z,79.15
2022-11-20T23:22:15.747Z,79.15
2022-11-20T23:25:17.433Z,79.18
2022-11-20T23:28:19.086Z,79.16
2022-11-20T23:31:21.257Z,79.15
2022-11-20T23:34:22.894Z,79.13
2022-11-20T23:37:24.518Z,79.07
2022-11-20T23:40:26.157Z,79.01
2022-11-20T23:43:27.926Z,78.99
2022-11-20T23:46:29.604Z,78.96
2022-11-20T23:49:31.231Z,78.99
2022-11-20T23:52:32.886Z,79.03
2022-11-20T23:55:34.644Z,79.01
2022-11-20T23:58:38.159Z,79.02
